sensor_id;sensor_type;location;lat;lon;timestamp;P1;durP1;ratioP1;P2;durP2;ratioP2
17228;SDS011;8731;50.364;8.958;2023-07-13T00:00:32;1.73;;;1.20;;
17228;SDS011;8731;50.364;8.958;2023-07-13T00:04:57;3.30;;;1.30;;
17228;SDS011;8731;50.364;8.958;2023-07-13T00:09:20;4.10;;;1.50;;
17228;SDS011;8731;50.364;8.958;2023-07-13T00:13:46;3.40;;;1.47;;
17228;SDS011;8731;50.364;8.958;2023-07-13T00:18:09;1.90;;;1.23;;
17228;SDS011;8731;50.364;8.958;2023-07-13T00:22:33;3.10;;;1.30;;
17228;SDS011;8731;50.364;8.958;2023-07-13T00:26:56;4.53;;;1.37;;
17228;SDS011;8731;50.364;8.958;2023-07-13T00:31:19;2.60;;;1.10;;
17228;SDS011;8731;50.364;8.958;2023-07-13T00:35:41;2.27;;;1.00;;
17228;SDS011;8731;50.364;8.958;2023-07-13T00:40:07;5.23;;;1.67;;
17228;SDS011;8731;50.364;8.958;2023-07-13T00:44:31;2.03;;;1.30;;
17228;SDS011;8731;50.364;8.958;2023-07-13T00:48:54;3.67;;;1.37;;
17228;SDS011;8731;50.364;8.958;2023-07-13T00:53:20;3.30;;;1.30;;
17228;SDS011;8731;50.364;8.958;2023-07-13T00:57:45;4.60;;;1.33;;
17228;SDS011;8731;50.364;8.958;2023-07-13T01:02:07;4.13;;;1.30;;
17228;SDS011;8731;50.364;8.958;2023-07-13T01:06:30;1.43;;;1.10;;
17228;SDS011;8731;50.364;8.958;2023-07-13T01:10:54;2.47;;;1.27;;
17228;SDS011;8731;50.364;8.958;2023-07-13T01:15:37;4.90;;;1.50;;
17228;SDS011;8731;50.364;8.958;2023-07-13T01:20:06;3.30;;;1.30;;
17228;SDS011;8731;50.364;8.958;2023-07-13T01:24:31;4.33;;;1.20;;
17228;SDS011;8731;50.364;8.958;2023-07-13T01:28:54;3.00;;;1.13;;
17228;SDS011;8731;50.364;8.958;2023-07-13T01:33:17;2.73;;;1.00;;
17228;SDS011;8731;50.364;8.958;2023-07-13T01:37:40;3.93;;;1.37;;
17228;SDS011;8731;50.364;8.958;2023-07-13T01:42:06;2.80;;;1.27;;
17228;SDS011;8731;50.364;8.958;2023-07-13T01:46:28;4.17;;;1.10;;
17228;SDS011;8731;50.364;8.958;2023-07-13T01:50:51;4.07;;;1.37;;
17228;SDS011;8731;50.364;8.958;2023-07-13T01:55:13;2.67;;;1.30;;
17228;SDS011;8731;50.364;8.958;2023-07-13T01:59:37;2.50;;;1.17;;
17228;SDS011;8731;50.364;8.958;2023-07-13T02:04:00;3.20;;;1.40;;
17228;SDS011;8731;50.364;8.958;2023-07-13T02:08:27;2.63;;;1.30;;
17228;SDS011;8731;50.364;8.958;2023-07-13T02:12:50;3.67;;;1.40;;
17228;SDS011;8731;50.364;8.958;2023-07-13T02:17:14;2.40;;;1.30;;
17228;SDS011;8731;50.364;8.958;2023-07-13T02:21:36;4.23;;;1.57;;
17228;SDS011;8731;50.364;8.958;2023-07-13T02:25:59;4.33;;;1.37;;
17228;SDS011;8731;50.364;8.958;2023-07-13T02:30:24;4.10;;;1.30;;
17228;SDS011;8731;50.364;8.958;2023-07-13T02:34:51;3.03;;;1.20;;
17228;SDS011;8731;50.364;8.958;2023-07-13T02:39:14;3.87;;;1.60;;
17228;SDS011;8731;50.364;8.958;2023-07-13T02:43:37;2.57;;;1.17;;
17228;SDS011;8731;50.364;8.958;2023-07-13T02:47:59;3.20;;;1.30;;
17228;SDS011;8731;50.364;8.958;2023-07-13T02:52:24;1.77;;;1.07;;
17228;SDS011;8731;50.364;8.958;2023-07-13T02:56:48;3.27;;;1.00;;
17228;SDS011;8731;50.364;8.958;2023-07-13T03:01:12;2.50;;;1.30;;
17228;SDS011;8731;50.364;8.958;2023-07-13T03:05:41;3.43;;;1.10;;
17228;SDS011;8731;50.364;8.958;2023-07-13T03:10:15;2.67;;;1.00;;
17228;SDS011;8731;50.364;8.958;2023-07-13T03:14:43;5.47;;;1.13;;
17228;SDS011;8731;50.364;8.958;2023-07-13T03:19:05;5.40;;;1.40;;
17228;SDS011;8731;50.364;8.958;2023-07-13T03:23:29;4.47;;;1.00;;
17228;SDS011;8731;50.364;8.958;2023-07-13T03:27:55;2.27;;;1.33;;
17228;SDS011;8731;50.364;8.958;2023-07-13T03:32:21;5.23;;;1.67;;
17228;SDS011;8731;50.364;8.958;2023-07-13T03:36:44;2.97;;;1.10;;
17228;SDS011;8731;50.364;8.958;2023-07-13T03:41:08;2.87;;;1.17;;
17228;SDS011;8731;50.364;8.958;2023-07-13T03:45:33;3.10;;;1.60;;
17228;SDS011;8731;50.364;8.958;2023-07-13T03:49:55;3.83;;;1.70;;
17228;SDS011;8731;50.364;8.958;2023-07-13T03:54:18;4.57;;;1.80;;
17228;SDS011;8731;50.364;8.958;2023-07-13T03:58:42;3.63;;;1.40;;
17228;SDS011;8731;50.364;8.958;2023-07-13T04:03:16;3.53;;;1.37;;
17228;SDS011;8731;50.364;8.958;2023-07-13T04:07:38;2.43;;;1.40;;
17228;SDS011;8731;50.364;8.958;2023-07-13T04:12:01;5.30;;;1.33;;
17228;SDS011;8731;50.364;8.958;2023-07-13T04:16:24;5.67;;;1.53;;
17228;SDS011;8731;50.364;8.958;2023-07-13T04:20:49;5.47;;;1.43;;
17228;SDS011;8731;50.364;8.958;2023-07-13T04:25:12;3.57;;;1.20;;
17228;SDS011;8731;50.364;8.958;2023-07-13T04:29:34;3.07;;;1.20;;
17228;SDS011;8731;50.364;8.958;2023-07-13T04:33:57;3.20;;;1.17;;
17228;SDS011;8731;50.364;8.958;2023-07-13T04:38:23;4.00;;;1.20;;
17228;SDS011;8731;50.364;8.958;2023-07-13T04:42:48;4.23;;;1.67;;
17228;SDS011;8731;50.364;8.958;2023-07-13T04:47:12;3.33;;;1.23;;
17228;SDS011;8731;50.364;8.958;2023-07-13T04:51:34;4.70;;;1.50;;
17228;SDS011;8731;50.364;8.958;2023-07-13T04:55:59;4.97;;;1.67;;
17228;SDS011;8731;50.364;8.958;2023-07-13T05:00:22;4.30;;;1.70;;
17228;SDS011;8731;50.364;8.958;2023-07-13T05:04:45;4.33;;;1.30;;
17228;SDS011;8731;50.364;8.958;2023-07-13T05:09:09;5.20;;;1.30;;
17228;SDS011;8731;50.364;8.958;2023-07-13T05:13:34;3.63;;;1.27;;
17228;SDS011;8731;50.364;8.958;2023-07-13T05:17:56;6.93;;;1.63;;
17228;SDS011;8731;50.364;8.958;2023-07-13T05:22:19;4.13;;;1.20;;
17228;SDS011;8731;50.364;8.958;2023-07-13T05:26:41;6.17;;;1.33;;
17228;SDS011;8731;50.364;8.958;2023-07-13T05:31:10;7.27;;;1.50;;
17228;SDS011;8731;50.364;8.958;2023-07-13T05:35:35;2.23;;;1.13;;
17228;SDS011;8731;50.364;8.958;2023-07-13T05:39:58;5.07;;;1.20;;
17228;SDS011;8731;50.364;8.958;2023-07-13T05:44:27;5.90;;;1.47;;
17228;SDS011;8731;50.364;8.958;2023-07-13T05:48:51;3.80;;;1.20;;
17228;SDS011;8731;50.364;8.958;2023-07-13T05:53:14;4.10;;;1.73;;
17228;SDS011;8731;50.364;8.958;2023-07-13T05:57:37;3.13;;;1.20;;
17228;SDS011;8731;50.364;8.958;2023-07-13T06:02:02;4.13;;;1.10;;
17228;SDS011;8731;50.364;8.958;2023-07-13T06:06:33;2.57;;;1.20;;
17228;SDS011;8731;50.364;8.958;2023-07-13T06:11:01;2.43;;;1.20;;
17228;SDS011;8731;50.364;8.958;2023-07-13T06:15:25;3.33;;;1.10;;
17228;SDS011;8731;50.364;8.958;2023-07-13T06:19:50;2.80;;;1.30;;
17228;SDS011;8731;50.364;8.958;2023-07-13T06:24:14;3.25;;;1.13;;
17228;SDS011;8731;50.364;8.958;2023-07-13T06:28:37;2.58;;;0.98;;
17228;SDS011;8731;50.364;8.958;2023-07-13T06:33:01;3.58;;;0.90;;
17228;SDS011;8731;50.364;8.958;2023-07-13T06:37:24;2.40;;;0.95;;
17228;SDS011;8731;50.364;8.958;2023-07-13T06:41:49;4.00;;;1.20;;
17228;SDS011;8731;50.364;8.958;2023-07-13T06:46:12;2.83;;;1.15;;
17228;SDS011;8731;50.364;8.958;2023-07-13T06:50:35;2.05;;;0.80;;
17228;SDS011;8731;50.364;8.958;2023-07-13T06:54:58;3.70;;;0.98;;
17228;SDS011;8731;50.364;8.958;2023-07-13T06:59:23;4.07;;;0.82;;
17228;SDS011;8731;50.364;8.958;2023-07-13T07:03:48;4.07;;;1.02;;
17228;SDS011;8731;50.364;8.958;2023-07-13T07:08:12;3.55;;;0.80;;
17228;SDS011;8731;50.364;8.958;2023-07-13T07:12:35;2.65;;;1.00;;
17228;SDS011;8731;50.364;8.958;2023-07-13T07:17:01;3.15;;;1.17;;
17228;SDS011;8731;50.364;8.958;2023-07-13T07:21:25;1.48;;;0.90;;
17228;SDS011;8731;50.364;8.958;2023-07-13T07:25:47;1.73;;;0.88;;
17228;SDS011;8731;50.364;8.958;2023-07-13T07:30:12;5.47;;;2.55;;
17228;SDS011;8731;50.364;8.958;2023-07-13T07:34:36;4.07;;;0.80;;
17228;SDS011;8731;50.364;8.958;2023-07-13T07:38:59;1.17;;;0.60;;
17228;SDS011;8731;50.364;8.958;2023-07-13T07:43:21;1.50;;;0.63;;
17228;SDS011;8731;50.364;8.958;2023-07-13T07:47:47;2.05;;;0.60;;
17228;SDS011;8731;50.364;8.958;2023-07-13T07:52:36;1.55;;;0.57;;
17228;SDS011;8731;50.364;8.958;2023-07-13T07:56:58;3.42;;;0.77;;
17228;SDS011;8731;50.364;8.958;2023-07-13T08:01:20;1.90;;;0.70;;
17228;SDS011;8731;50.364;8.958;2023-07-13T08:05:43;1.67;;;0.60;;
17228;SDS011;8731;50.364;8.958;2023-07-13T08:10:07;1.15;;;0.63;;
17228;SDS011;8731;50.364;8.958;2023-07-13T08:14:34;1.27;;;0.82;;
17228;SDS011;8731;50.364;8.958;2023-07-13T08:18:59;1.13;;;0.70;;
17228;SDS011;8731;50.364;8.958;2023-07-13T08:23:29;2.10;;;0.60;;
17228;SDS011;8731;50.364;8.958;2023-07-13T08:28:16;5.85;;;0.73;;
17228;SDS011;8731;50.364;8.958;2023-07-13T08:32:41;0.80;;;0.57;;
17228;SDS011;8731;50.364;8.958;2023-07-13T08:37:11;2.25;;;0.80;;
17228;SDS011;8731;50.364;8.958;2023-07-13T08:41:39;1.33;;;0.80;;
17228;SDS011;8731;50.364;8.958;2023-07-13T08:46:31;2.22;;;0.68;;
17228;SDS011;8731;50.364;8.958;2023-07-13T08:50:58;2.65;;;0.90;;
17228;SDS011;8731;50.364;8.958;2023-07-13T08:55:33;2.20;;;0.82;;
17228;SDS011;8731;50.364;8.958;2023-07-13T08:59:59;1.20;;;0.50;;
17228;SDS011;8731;50.364;8.958;2023-07-13T09:04:23;1.73;;;0.70;;
17228;SDS011;8731;50.364;8.958;2023-07-13T09:08:54;1.10;;;0.68;;
17228;SDS011;8731;50.364;8.958;2023-07-13T09:13:26;1.58;;;0.52;;
17228;SDS011;8731;50.364;8.958;2023-07-13T09:18:02;1.42;;;0.68;;
17228;SDS011;8731;50.364;8.958;2023-07-13T09:22:33;1.30;;;0.57;;
17228;SDS011;8731;50.364;8.958;2023-07-13T09:26:59;1.83;;;0.60;;
17228;SDS011;8731;50.364;8.958;2023-07-13T09:31:26;0.80;;;0.50;;
17228;SDS011;8731;50.364;8.958;2023-07-13T09:35:57;1.67;;;0.50;;
17228;SDS011;8731;50.364;8.958;2023-07-13T09:40:21;1.00;;;0.50;;
17228;SDS011;8731;50.364;8.958;2023-07-13T09:44:54;1.10;;;0.57;;
17228;SDS011;8731;50.364;8.958;2023-07-13T09:49:22;0.80;;;0.40;;
17228;SDS011;8731;50.364;8.958;2023-07-13T09:53:46;0.88;;;0.50;;
17228;SDS011;8731;50.364;8.958;2023-07-13T09:58:11;1.25;;;0.60;;
17228;SDS011;8731;50.364;8.958;2023-07-13T10:02:35;0.93;;;0.55;;
17228;SDS011;8731;50.364;8.958;2023-07-13T10:07:05;2.00;;;0.70;;
17228;SDS011;8731;50.364;8.958;2023-07-13T10:11:30;1.85;;;0.60;;
17228;SDS011;8731;50.364;8.958;2023-07-13T10:15:55;1.10;;;0.70;;
17228;SDS011;8731;50.364;8.958;2023-07-13T10:20:22;1.65;;;0.68;;
17228;SDS011;8731;50.364;8.958;2023-07-13T10:24:47;2.30;;;0.70;;
17228;SDS011;8731;50.364;8.958;2023-07-13T10:29:12;0.65;;;0.40;;
17228;SDS011;8731;50.364;8.958;2023-07-13T10:33:39;2.30;;;0.70;;
17228;SDS011;8731;50.364;8.958;2023-07-13T10:38:03;2.47;;;0.80;;
17228;SDS011;8731;50.364;8.958;2023-07-13T10:42:32;1.40;;;0.82;;
17228;SDS011;8731;50.364;8.958;2023-07-13T10:47:03;1.05;;;0.60;;
17228;SDS011;8731;50.364;8.958;2023-07-13T10:51:34;1.33;;;0.80;;
17228;SDS011;8731;50.364;8.958;2023-07-13T10:55:58;1.98;;;0.90;;
17228;SDS011;8731;50.364;8.958;2023-07-13T11:00:25;1.25;;;0.70;;
17228;SDS011;8731;50.364;8.958;2023-07-13T11:04:52;9.05;;;1.17;;
17228;SDS011;8731;50.364;8.958;2023-07-13T11:09:24;1.25;;;0.70;;
17228;SDS011;8731;50.364;8.958;2023-07-13T11:13:57;2.28;;;0.70;;
17228;SDS011;8731;50.364;8.958;2023-07-13T11:18:24;1.92;;;0.85;;
17228;SDS011;8731;50.364;8.958;2023-07-13T11:22:48;1.08;;;0.75;;
17228;SDS011;8731;50.364;8.958;2023-07-13T11:27:36;4.18;;;1.17;;
17228;SDS011;8731;50.364;8.958;2023-07-13T11:32:22;2.83;;;0.80;;
17228;SDS011;8731;50.364;8.958;2023-07-13T11:36:50;0.93;;;0.80;;
17228;SDS011;8731;50.364;8.958;2023-07-13T11:41:14;1.27;;;0.80;;
17228;SDS011;8731;50.364;8.958;2023-07-13T11:45:43;2.17;;;1.05;;
17228;SDS011;8731;50.364;8.958;2023-07-13T11:50:16;1.27;;;0.80;;
17228;SDS011;8731;50.364;8.958;2023-07-13T11:54:43;1.03;;;0.70;;
17228;SDS011;8731;50.364;8.958;2023-07-13T11:59:11;1.00;;;0.90;;
17228;SDS011;8731;50.364;8.958;2023-07-13T12:03:38;4.23;;;0.97;;
17228;SDS011;8731;50.364;8.958;2023-07-13T12:08:08;1.33;;;0.93;;
17228;SDS011;8731;50.364;8.958;2023-07-13T12:12:32;1.27;;;0.90;;
17228;SDS011;8731;50.364;8.958;2023-07-13T12:16:55;2.70;;;0.90;;
17228;SDS011;8731;50.364;8.958;2023-07-13T12:21:19;2.23;;;1.00;;
17228;SDS011;8731;50.364;8.958;2023-07-13T12:25:50;2.03;;;1.00;;
17228;SDS011;8731;50.364;8.958;2023-07-13T12:30:24;1.83;;;0.90;;
17228;SDS011;8731;50.364;8.958;2023-07-13T12:34:52;1.47;;;0.90;;
17228;SDS011;8731;50.364;8.958;2023-07-13T12:39:19;1.87;;;0.87;;
17228;SDS011;8731;50.364;8.958;2023-07-13T12:43:44;3.43;;;1.00;;
17228;SDS011;8731;50.364;8.958;2023-07-13T12:48:12;1.00;;;0.90;;
17228;SDS011;8731;50.364;8.958;2023-07-13T12:52:38;4.10;;;1.10;;
17228;SDS011;8731;50.364;8.958;2023-07-13T12:57:02;2.13;;;1.20;;
17228;SDS011;8731;50.364;8.958;2023-07-13T13:01:30;3.17;;;1.00;;
17228;SDS011;8731;50.364;8.958;2023-07-13T13:05:58;3.60;;;1.23;;
17228;SDS011;8731;50.364;8.958;2023-07-13T13:10:23;1.30;;;0.80;;
17228;SDS011;8731;50.364;8.958;2023-07-13T13:14:47;1.60;;;0.90;;
17228;SDS011;8731;50.364;8.958;2023-07-13T13:19:13;3.77;;;1.10;;
17228;SDS011;8731;50.364;8.958;2023-07-13T13:23:38;1.50;;;0.87;;
17228;SDS011;8731;50.364;8.958;2023-07-13T13:28:01;1.60;;;0.97;;
17228;SDS011;8731;50.364;8.958;2023-07-13T13:32:24;1.57;;;0.93;;
17228;SDS011;8731;50.364;8.958;2023-07-13T13:36:47;1.57;;;1.07;;
17228;SDS011;8731;50.364;8.958;2023-07-13T13:41:10;2.90;;;1.00;;
17228;SDS011;8731;50.364;8.958;2023-07-13T13:45:34;2.53;;;0.90;;
17228;SDS011;8731;50.364;8.958;2023-07-13T13:49:58;1.60;;;0.93;;
17228;SDS011;8731;50.364;8.958;2023-07-13T13:54:21;2.67;;;0.97;;
17228;SDS011;8731;50.364;8.958;2023-07-13T13:58:45;2.53;;;1.13;;
17228;SDS011;8731;50.364;8.958;2023-07-13T14:03:08;2.03;;;1.07;;
17228;SDS011;8731;50.364;8.958;2023-07-13T14:07:38;3.47;;;1.10;;
17228;SDS011;8731;50.364;8.958;2023-07-13T14:12:01;1.20;;;0.87;;
17228;SDS011;8731;50.364;8.958;2023-07-13T14:16:25;2.27;;;1.10;;
17228;SDS011;8731;50.364;8.958;2023-07-13T14:20:51;2.63;;;1.10;;
17228;SDS011;8731;50.364;8.958;2023-07-13T14:25:15;3.50;;;1.00;;
17228;SDS011;8731;50.364;8.958;2023-07-13T14:29:39;3.33;;;1.00;;
17228;SDS011;8731;50.364;8.958;2023-07-13T14:34:02;2.27;;;1.17;;
17228;SDS011;8731;50.364;8.958;2023-07-13T14:38:24;2.23;;;1.10;;
17228;SDS011;8731;50.364;8.958;2023-07-13T14:42:48;3.07;;;1.10;;
17228;SDS011;8731;50.364;8.958;2023-07-13T14:47:10;1.77;;;1.00;;
17228;SDS011;8731;50.364;8.958;2023-07-13T14:51:33;2.43;;;1.03;;
17228;SDS011;8731;50.364;8.958;2023-07-13T14:55:57;1.80;;;1.20;;
17228;SDS011;8731;50.364;8.958;2023-07-13T15:00:21;3.37;;;1.13;;
17228;SDS011;8731;50.364;8.958;2023-07-13T15:04:45;2.77;;;1.10;;
17228;SDS011;8731;50.364;8.958;2023-07-13T15:09:07;4.17;;;1.30;;
17228;SDS011;8731;50.364;8.958;2023-07-13T15:13:33;13.97;;;2.40;;
17228;SDS011;8731;50.364;8.958;2023-07-13T15:17:57;1.33;;;1.00;;
17228;SDS011;8731;50.364;8.958;2023-07-13T15:22:21;2.97;;;1.30;;
17228;SDS011;8731;50.364;8.958;2023-07-13T15:26:44;2.37;;;0.93;;
17228;SDS011;8731;50.364;8.958;2023-07-13T15:31:15;4.43;;;1.17;;
17228;SDS011;8731;50.364;8.958;2023-07-13T15:35:43;3.93;;;1.57;;
17228;SDS011;8731;50.364;8.958;2023-07-13T15:40:07;4.80;;;1.10;;
17228;SDS011;8731;50.364;8.958;2023-07-13T15:44:31;5.33;;;1.17;;
17228;SDS011;8731;50.364;8.958;2023-07-13T15:48:54;3.17;;;0.93;;
17228;SDS011;8731;50.364;8.958;2023-07-13T15:53:22;2.87;;;1.20;;
17228;SDS011;8731;50.364;8.958;2023-07-13T15:57:51;2.13;;;0.90;;
17228;SDS011;8731;50.364;8.958;2023-07-13T16:02:16;3.50;;;1.17;;
17228;SDS011;8731;50.364;8.958;2023-07-13T16:06:41;2.80;;;0.87;;
17228;SDS011;8731;50.364;8.958;2023-07-13T16:11:05;2.87;;;1.00;;
17228;SDS011;8731;50.364;8.958;2023-07-13T16:15:39;2.23;;;1.07;;
17228;SDS011;8731;50.364;8.958;2023-07-13T16:20:05;2.23;;;1.23;;
17228;SDS011;8731;50.364;8.958;2023-07-13T16:24:31;3.30;;;1.27;;
17228;SDS011;8731;50.364;8.958;2023-07-13T16:28:55;2.97;;;1.10;;
17228;SDS011;8731;50.364;8.958;2023-07-13T16:33:21;3.30;;;1.20;;
17228;SDS011;8731;50.364;8.958;2023-07-13T16:37:44;2.13;;;1.20;;
17228;SDS011;8731;50.364;8.958;2023-07-13T16:42:08;6.30;;;1.17;;
17228;SDS011;8731;50.364;8.958;2023-07-13T16:46:33;3.10;;;1.10;;
17228;SDS011;8731;50.364;8.958;2023-07-13T16:50:56;2.43;;;1.40;;
17228;SDS011;8731;50.364;8.958;2023-07-13T16:55:20;2.90;;;1.20;;
17228;SDS011;8731;50.364;8.958;2023-07-13T16:59:47;1.33;;;1.03;;
17228;SDS011;8731;50.364;8.958;2023-07-13T17:04:15;3.00;;;1.37;;
17228;SDS011;8731;50.364;8.958;2023-07-13T17:08:40;2.87;;;1.00;;
17228;SDS011;8731;50.364;8.958;2023-07-13T17:13:04;2.20;;;1.20;;
17228;SDS011;8731;50.364;8.958;2023-07-13T17:17:32;1.90;;;0.97;;
17228;SDS011;8731;50.364;8.958;2023-07-13T17:22:03;1.60;;;1.20;;
17228;SDS011;8731;50.364;8.958;2023-07-13T17:26:29;1.97;;;1.03;;
17228;SDS011;8731;50.364;8.958;2023-07-13T17:30:53;2.20;;;1.20;;
17228;SDS011;8731;50.364;8.958;2023-07-13T17:35:23;3.87;;;1.30;;
17228;SDS011;8731;50.364;8.958;2023-07-13T17:39:49;2.07;;;1.13;;
17228;SDS011;8731;50.364;8.958;2023-07-13T17:44:12;1.43;;;1.10;;
17228;SDS011;8731;50.364;8.958;2023-07-13T17:48:38;2.47;;;1.20;;
17228;SDS011;8731;50.364;8.958;2023-07-13T17:53:02;2.60;;;1.10;;
17228;SDS011;8731;50.364;8.958;2023-07-13T17:57:30;2.87;;;0.93;;
17228;SDS011;8731;50.364;8.958;2023-07-13T18:01:52;2.50;;;1.10;;
17228;SDS011;8731;50.364;8.958;2023-07-13T18:06:16;1.47;;;1.00;;
17228;SDS011;8731;50.364;8.958;2023-07-13T18:10:44;3.70;;;1.30;;
17228;SDS011;8731;50.364;8.958;2023-07-13T18:15:09;1.83;;;1.00;;
17228;SDS011;8731;50.364;8.958;2023-07-13T18:19:32;1.83;;;0.90;;
17228;SDS011;8731;50.364;8.958;2023-07-13T18:24:00;2.83;;;1.27;;
17228;SDS011;8731;50.364;8.958;2023-07-13T18:28:24;2.53;;;1.10;;
17228;SDS011;8731;50.364;8.958;2023-07-13T18:32:49;1.67;;;1.20;;
17228;SDS011;8731;50.364;8.958;2023-07-13T18:37:17;4.23;;;1.73;;
17228;SDS011;8731;50.364;8.958;2023-07-13T18:41:42;3.37;;;1.13;;
17228;SDS011;8731;50.364;8.958;2023-07-13T18:46:11;2.97;;;1.47;;
17228;SDS011;8731;50.364;8.958;2023-07-13T18:50:40;2.87;;;1.17;;
17228;SDS011;8731;50.364;8.958;2023-07-13T18:55:08;2.13;;;1.40;;
17228;SDS011;8731;50.364;8.958;2023-07-13T18:59:39;3.97;;;1.20;;
17228;SDS011;8731;50.364;8.958;2023-07-13T19:04:02;2.53;;;1.50;;
17228;SDS011;8731;50.364;8.958;2023-07-13T19:08:48;3.43;;;1.30;;
17228;SDS011;8731;50.364;8.958;2023-07-13T19:13:13;1.57;;;1.30;;
17228;SDS011;8731;50.364;8.958;2023-07-13T19:17:42;3.57;;;1.30;;
17228;SDS011;8731;50.364;8.958;2023-07-13T19:22:05;2.57;;;1.00;;
17228;SDS011;8731;50.364;8.958;2023-07-13T19:26:33;4.73;;;1.20;;
17228;SDS011;8731;50.364;8.958;2023-07-13T19:30:59;2.77;;;0.93;;
17228;SDS011;8731;50.364;8.958;2023-07-13T19:35:22;4.10;;;1.37;;
17228;SDS011;8731;50.364;8.958;2023-07-13T19:39:48;3.20;;;1.43;;
17228;SDS011;8731;50.364;8.958;2023-07-13T19:44:13;3.33;;;1.40;;
17228;SDS011;8731;50.364;8.958;2023-07-13T19:48:36;3.33;;;1.30;;
17228;SDS011;8731;50.364;8.958;2023-07-13T19:52:58;7.40;;;1.90;;
17228;SDS011;8731;50.364;8.958;2023-07-13T19:57:22;8.80;;;1.60;;
17228;SDS011;8731;50.364;8.958;2023-07-13T20:01:47;4.73;;;1.30;;
17228;SDS011;8731;50.364;8.958;2023-07-13T20:06:14;3.17;;;1.50;;
17228;SDS011;8731;50.364;8.958;2023-07-13T20:10:49;3.70;;;1.23;;
17228;SDS011;8731;50.364;8.958;2023-07-13T20:15:13;4.87;;;1.33;;
17228;SDS011;8731;50.364;8.958;2023-07-13T20:19:39;2.23;;;1.40;;
17228;SDS011;8731;50.364;8.958;2023-07-13T20:24:04;3.07;;;1.50;;
17228;SDS011;8731;50.364;8.958;2023-07-13T20:28:37;4.77;;;1.60;;
17228;SDS011;8731;50.364;8.958;2023-07-13T20:32:59;1.77;;;1.43;;
17228;SDS011;8731;50.364;8.958;2023-07-13T20:37:28;2.07;;;1.30;;
17228;SDS011;8731;50.364;8.958;2023-07-13T20:41:53;4.07;;;1.40;;
17228;SDS011;8731;50.364;8.958;2023-07-13T20:46:16;2.70;;;1.40;;
17228;SDS011;8731;50.364;8.958;2023-07-13T20:50:39;3.00;;;1.67;;
17228;SDS011;8731;50.364;8.958;2023-07-13T20:55:08;2.23;;;1.50;;
17228;SDS011;8731;50.364;8.958;2023-07-13T20:59:36;3.27;;;1.40;;
17228;SDS011;8731;50.364;8.958;2023-07-13T21:04:00;4.17;;;1.00;;
17228;SDS011;8731;50.364;8.958;2023-07-13T21:08:26;1.97;;;1.10;;
17228;SDS011;8731;50.364;8.958;2023-07-13T21:12:50;2.10;;;1.10;;
17228;SDS011;8731;50.364;8.958;2023-07-13T21:17:14;5.33;;;1.50;;
17228;SDS011;8731;50.364;8.958;2023-07-13T21:21:36;2.20;;;1.33;;
17228;SDS011;8731;50.364;8.958;2023-07-13T21:25:59;2.23;;;1.30;;
17228;SDS011;8731;50.364;8.958;2023-07-13T21:30:26;3.73;;;1.20;;
17228;SDS011;8731;50.364;8.958;2023-07-13T21:34:56;4.57;;;1.67;;
17228;SDS011;8731;50.364;8.958;2023-07-13T21:39:22;4.67;;;1.30;;
17228;SDS011;8731;50.364;8.958;2023-07-13T21:43:45;2.43;;;1.27;;
17228;SDS011;8731;50.364;8.958;2023-07-13T21:48:09;3.47;;;1.27;;
17228;SDS011;8731;50.364;8.958;2023-07-13T21:52:37;4.00;;;1.43;;
17228;SDS011;8731;50.364;8.958;2023-07-13T21:57:00;4.00;;;1.37;;
17228;SDS011;8731;50.364;8.958;2023-07-13T22:01:22;3.43;;;1.30;;
17228;SDS011;8731;50.364;8.958;2023-07-13T22:05:54;2.30;;;1.30;;
17228;SDS011;8731;50.364;8.958;2023-07-13T22:10:19;2.70;;;1.60;;
17228;SDS011;8731;50.364;8.958;2023-07-13T22:14:45;3.33;;;1.60;;
17228;SDS011;8731;50.364;8.958;2023-07-13T22:19:09;2.37;;;1.20;;
17228;SDS011;8731;50.364;8.958;2023-07-13T22:23:37;4.70;;;1.33;;
17228;SDS011;8731;50.364;8.958;2023-07-13T22:28:00;4.03;;;1.20;;
17228;SDS011;8731;50.364;8.958;2023-07-13T22:32:23;3.07;;;1.37;;
17228;SDS011;8731;50.364;8.958;2023-07-13T22:36:46;1.97;;;1.33;;
17228;SDS011;8731;50.364;8.958;2023-07-13T22:41:12;2.70;;;1.60;;
17228;SDS011;8731;50.364;8.958;2023-07-13T22:45:36;4.27;;;1.50;;
17228;SDS011;8731;50.364;8.958;2023-07-13T22:49:58;3.63;;;2.03;;
17228;SDS011;8731;50.364;8.958;2023-07-13T22:54:21;3.27;;;1.30;;
17228;SDS011;8731;50.364;8.958;2023-07-13T22:58:46;2.27;;;1.80;;
17228;SDS011;8731;50.364;8.958;2023-07-13T23:03:09;3.87;;;2.03;;
17228;SDS011;8731;50.364;8.958;2023-07-13T23:07:37;3.97;;;1.70;;
17228;SDS011;8731;50.364;8.958;2023-07-13T23:11:59;2.67;;;1.30;;
17228;SDS011;8731;50.364;8.958;2023-07-13T23:16:25;4.60;;;1.60;;
17228;SDS011;8731;50.364;8.958;2023-07-13T23:20:51;3.13;;;1.40;;
17228;SDS011;8731;50.364;8.958;2023-07-13T23:25:13;3.47;;;1.30;;
17228;SDS011;8731;50.364;8.958;2023-07-13T23:29:37;1.90;;;1.40;;
17228;SDS011;8731;50.364;8.958;2023-07-13T23:34:02;3.70;;;1.23;;
17228;SDS011;8731;50.364;8.958;2023-07-13T23:38:33;2.93;;;1.53;;
17228;SDS011;8731;50.364;8.958;2023-07-13T23:42:55;3.00;;;1.23;;
17228;SDS011;8731;50.364;8.958;2023-07-13T23:56:59;2.03;;;1.37;;
